Decoded Metar for LFOP (ROUEN in FRANCE) (IATA:URO) | Meteo·Mobile Aviation Weather
aviador You're here:

LFOP Decoded Metar

ROUEN in FRANCE
Report Time2019-02-22 00:00:00
UTC Time2019-02-22 00:29:51
Flight Rules ifr IFR
Wind070° at 03 kt
W.Decomp.*RWY 05: 2.8 kt HW 1.0 kt RCW
RWY 04: 2.6 kt HW 1.5 kt RCW
W.Rank070° ranks 26
Current wind is below 070° avg. (6.4)
Visibility3400 m
Phenomena:Mist
Clouds:N/A
Expected CloudBase > 400 ft AGL from Temp-Dew spread
CeilingNone
Temp05°C (ISA -9)
Dew Point04°C (93% RH)
AAT2.6°C
QNH1032 hPa
Density Alt-1,099 ft
Elevation515 ft
Report Wrong Elevation
Raw Report
METAR LFOP 220000Z AUTO 07003KT 3400 BR NSC 05/04 Q1032=

Extra information for LFOP:More info

Metar Taf Metar & Taf Last 4 Metars F.Rules Stats Wind Profile Meteogram Temp Stats Airport Information Weather charts Add Link Nearby VenuesMetar ALERT Operation Metar Decoded Social comments